Stormwatcher's Retreat Logo




                  Temp     Hi    Low   Out    Dew  Wind  Wind   Wind    Hi    Hi   Wind   Heat    THW   THSW                Rain  Solar   Solar Hi Solar   UV    UV    Hi     Heat    Cool    In     In    In     In     In   In Air          Wind  Wind    ISS   Arc.
  Date    Time     Out   Temp   Temp   Hum    Pt. Speed   Dir    Run Speed   Dir  Chill  Index  Index  Index   Bar    Rain  Rate   Rad.  Energy    Rad.  Index  Dose   UV     D-D     D-D    Temp   Hum    Dew   Heat    EMC Density     ET   Samp   Tx   Recept  Int.
------------------------------------------------------------------------------------------------------------------------------------------------------------------------------------------------------------------------------------------------------------------------
11/30/20 12:10a   53.2   53.3   52.7    75   45.5  15.0     S   2.50  26.0     S   46.8   52.7   46.3   44.3  30.057  0.00  0.00     0     0.00      0     0.0  0.00   0.0   0.082   0.000   68.7    48   48.2   67.1   8.88  .0746    0.000   203    7    100.0   10 
11/30/20 12:20a   53.2   53.2   53.1    74   45.1  15.0     S   2.50  27.0     S   46.8   52.7   46.3   44.3  30.051  0.00  0.00     0     0.00      0     0.0  0.00   0.0   0.082   0.000   68.7    48   48.2   67.1   8.88  .0746    0.000   204    7    100.0   10 
11/30/20 12:30a   53.3   53.4   53.1    73   44.9  17.0     S   2.83  26.0     S   46.3   52.7   45.7   43.7  30.058  0.00  0.00     0     0.00      0     0.0  0.00   0.0   0.081   0.000   68.6    48   48.1   67.0   8.88  .0746    0.000   201    7    100.0   10 
11/30/20 12:40a   52.9   53.2   52.8    76   45.5  17.0     S   2.83  27.0     S   45.9   52.5   45.5   43.6  30.049  0.00  0.00     0     0.00      0     0.0  0.00   0.0   0.084   0.000   68.6    48   48.1   67.0   8.88  .0746    0.000   203    7    100.0   10 
11/30/20 12:50a   52.7   52.9   52.6    76   45.3  16.0     S   2.67  31.0   SSW   46.0   52.3   45.6   43.6  30.043  0.00  0.00     0     0.00      0     0.0  0.00   0.0   0.085   0.000   68.5    48   48.0   66.9   8.88  .0746    0.000   202    7    100.0   10 
11/30/20  1:00a   52.7   52.8   52.6    76   45.3  16.0     S   2.67  29.0     S   46.0   52.3   45.6   43.6  30.035  0.00  0.00     0     0.00      0     0.0  0.00   0.0   0.085   0.000   68.5    48   48.0   66.9   8.88  .0746    0.003   205    7    100.0   10 
11/30/20  1:10a   52.9   52.9   52.7    76   45.5  16.0     S   2.67  29.0     S   46.2   52.5   45.8   43.8  30.031  0.00  0.00     0     0.00      0     0.0  0.00   0.0   0.084   0.000   68.5    48   48.0   66.9   8.88  .0746    0.000   204    7    100.0   10 
11/30/20  1:20a   53.2   53.2   52.8    75   45.5  18.0     S   3.00  30.0     S   45.9   52.7   45.4   43.6  30.027  0.00  0.00     0     0.00      0     0.0  0.00   0.0   0.082   0.000   68.4    48   47.9   66.9   8.88  .0746    0.000   202    7    100.0   10 
11/30/20  1:30a   51.9   53.2   51.9    80   45.9  21.0     S   3.50  35.0     S   43.8   51.7   43.6   41.9  30.023  0.00  0.00     0     0.00      0     0.0  0.00   0.0   0.091   0.000   68.4    48   47.9   66.9   8.88  .0746    0.000   201    7    100.0   10 
11/30/20  1:40a   51.8   51.9   51.5    82   46.5  15.0     S   2.50  36.0     S   45.3   51.7   45.2   43.2  30.014  0.00  0.00     0     0.00      0     0.0  0.00   0.0   0.092   0.000   68.3    48   47.8   66.8   8.88  .0746    0.000   203    7    100.0   10 
11/30/20  1:50a   51.5   51.9   51.5    83   46.5  15.0     S   2.50  37.0     S   44.9   51.4   44.8   42.8  30.014  0.02  0.07     0     0.00      0     0.0  0.00   0.0   0.094   0.000   68.3    48   47.8   66.8   8.88  .0746    0.000   204    7    100.0   10 
11/30/20  2:00a   51.0   51.5   51.0    86   47.0  13.0     S   2.17  24.0     S   45.0   51.0   45.0   42.9  30.010  0.03  0.23     0     0.00      0     0.0  0.00   0.0   0.097   0.000   68.3    48   47.8   66.8   8.88  .0745    0.002   201    7    100.0   10 
11/30/20  2:10a   50.9   51.1   50.9    87   47.2  14.0     S   2.33  25.0     S   44.6   51.0   44.7   42.7  30.011  0.02  0.23     0     0.00      0     0.0  0.00   0.0   0.098   0.000   68.2    48   47.8   66.7   8.89  .0746    0.000   201    7    100.0   10 
11/30/20  2:20a   50.2   51.0   50.2    89   47.1  18.0     S   3.00  28.0     S   42.5   50.4   42.7   40.9  30.031  0.04  0.51     0     0.00      0     0.0  0.00   0.0   0.103   0.000   68.2    48   47.8   66.7   8.89  .0746    0.000   205    7    100.0   10 
11/30/20  2:30a   49.6   50.2   49.6    91   47.1  21.0   SSW   3.50  31.0   SSE   41.2   49.9   41.5   39.9  30.068  0.02  0.51     0     0.00      0     0.0  0.00   0.0   0.107   0.000   68.1    48   47.7   66.6   8.89  .0747    0.000   202    7    100.0   10 
11/30/20  2:40a   49.5   49.7   49.4    92   47.3  23.0     S   3.83  32.0   SSE   40.7   49.9   41.1   39.5  30.091  0.01  0.14     0     0.00      0     0.0  0.00   0.0   0.108   0.000   68.1    48   47.7   66.6   8.89  .0748    0.000   203    7    100.0   10 
11/30/20  2:50a   50.7   50.7   49.5    94   49.0  25.0     S   4.17  38.0     S   41.6   51.1   42.0   40.5  30.105  0.01  0.07     0     0.00      0     0.0  0.00   0.0   0.099   0.000   68.0    48   47.6   66.5   8.89  .0748    0.000   205    7    100.0   10 
11/30/20  3:00a   50.6   50.8   50.6    93   48.7  19.0   SSW   3.17  28.0   SSE   42.8   51.0   43.2   41.5  30.104  0.00  0.04     0     0.00      0     0.0  0.00   0.0   0.100   0.000   68.0    48   47.6   66.5   8.89  .0748    0.001   204    7    100.0   10 
11/30/20  3:10a   50.1   50.8   50.1    93   48.2  14.0     S   2.33  23.0   SSE   43.6   50.5   44.0   42.0  30.102  0.00  0.00     0     0.00      0     0.0  0.00   0.0   0.103   0.000   67.9    48   47.5   66.4   8.89  .0748    0.000   201    7    100.0   10 
11/30/20  3:20a   50.3   50.5   50.1    93   48.4  12.0     S   2.00  21.0   SSE   44.6   50.7   45.0   42.9  30.100  0.00  0.00     0     0.00      0     0.0  0.00   0.0   0.102   0.000   67.9    48   47.5   66.4   8.89  .0748    0.000   203    7    100.0   10 
11/30/20  3:30a   50.3   50.3   50.0    92   48.1  12.0     S   2.00  22.0     S   44.6   50.7   45.0   42.9  30.113  0.00  0.00     0     0.00      0     0.0  0.00   0.0   0.102   0.000   67.8    48   47.4   66.3   8.89  .0749    0.000   204    7    100.0   10 
11/30/20  3:40a   50.3   50.5   50.3    92   48.1  12.0     S   2.00  21.0     S   44.6   50.7   45.0   42.9  30.107  0.01  0.00     0     0.00      0     0.0  0.00   0.0   0.102   0.000   67.8    48   47.4   66.3   8.89  .0749    0.000   204    7    100.0   10 
11/30/20  3:50a   50.7   50.8   50.3    93   48.7  12.0     S   2.00  23.0     S   45.1   51.0   45.4   43.3  30.112  0.02  0.08     0     0.00      0     0.0  0.00   0.0   0.099   0.000   67.8    48   47.4   66.3   8.89  .0749    0.000   203    7    100.0   10 
11/30/20  4:00a   51.0   51.2   50.8    93   49.0  14.0     S   2.33  33.0     S   44.7   51.3   45.0   43.0  30.110  0.01  0.15     0     0.00      0     0.0  0.00   0.0   0.097   0.000   67.7    48   47.3   66.2   8.90  .0749    0.001   204    7    100.0   10 
11/30/20  4:10a   51.1   51.3   51.0    94   49.4  15.0   SSW   2.50  26.0   SSE   44.4   51.5   44.8   42.9  30.120  0.01  0.09     0     0.00      0     0.0  0.00   0.0   0.097   0.000   67.7    48   47.3   66.2   8.90  .0749    0.000   202    7    100.0   10 
11/30/20  4:20a   51.2   51.2   51.0    94   49.5  14.0   SSW   2.33  20.0     S   44.9   51.5   45.2   43.2  30.127  0.00  0.00     0     0.00      0     0.0  0.00   0.0   0.096   0.000   67.7    48   47.3   66.2   8.90  .0749    0.000   203    7    100.0   10 
11/30/20  4:30a   51.2   51.2   51.2    94   49.5  14.0     S   2.33  22.0     S   44.9   51.5   45.2   43.2  30.133  0.00  0.00     0     0.00      0     0.0  0.00   0.0   0.096   0.000   67.7    48   47.3   66.2   8.90  .0750    0.000   201    7    100.0   10 
11/30/20  4:40a   51.3   51.4   51.2    94   49.6  13.0     S   2.17  21.0   SSE   45.4   51.6   45.7   43.6  30.147  0.00  0.00     0     0.00      0     0.0  0.00   0.0   0.095   0.000   67.6    48   47.2   66.1   8.90  .0750    0.000   203    7    100.0   10 
11/30/20  4:50a   51.3   51.4   51.2    94   49.6  13.0     S   2.17  20.0     S   45.4   51.6   45.7   43.6  30.145  0.01  0.00     0     0.00      0     0.0  0.00   0.0   0.095   0.000   67.6    48   47.2   66.1   8.90  .0750    0.000   203    7    100.0   10 
11/30/20  5:00a   51.3   51.3   51.2    94   49.6  14.0     S   2.33  21.0   SSE   45.0   51.6   45.3   43.3  30.154  0.00  0.00     0     0.00      0     0.0  0.00   0.0   0.095   0.000   67.6    48   47.2   66.1   8.90  .0750    0.001   202    7    100.0   10 
11/30/20  5:10a   51.3   51.4   51.2    94   49.6  12.0     S   2.00  18.0     S   45.8   51.6   46.1   44.0  30.163  0.00  0.00     0     0.00      0     0.0  0.00   0.0   0.095   0.000   67.5    48   47.1   65.9   8.90  .0751    0.000   202    7    100.0   10 
11/30/20  5:20a   51.4   51.4   51.2    94   49.7  11.0     S   1.83  16.0   SSW   46.4   51.7   46.7   44.5  30.167  0.00  0.00     0     0.00      0     0.0  0.00   0.0   0.094   0.000   67.5    49   47.7   66.1   9.10  .0751    0.000   202    7    100.0   10 
11/30/20  5:30a   51.4   51.4   51.3    93   49.4  12.0     S   2.00  21.0   SSE   45.9   51.7   46.2   44.1  30.173  0.00  0.00     0     0.00      0     0.0  0.00   0.0   0.094   0.000   67.5    49   47.7   66.1   9.10  .0751    0.000   202    7    100.0   10 
11/30/20  5:40a   52.3   52.3   51.4    90   49.5  11.0    SW   1.83  15.0    SW   47.4   52.5   47.6   45.4  30.184  0.00  0.00     0     0.00      0     0.0  0.00   0.0   0.088   0.000   67.4    49   47.6   65.9   9.10  .0751    0.000   203    7    100.0   10 
11/30/20  5:50a   52.5   52.6   52.3    89   49.4  10.0    SW   1.67  14.0    SW   48.2   52.6   48.3   46.0  30.190  0.00  0.00     0     0.00      0     0.0  0.00   0.0   0.087   0.000   67.4    49   47.6   65.9   9.10  .0751    0.000   202    7    100.0   10 
11/30/20  6:00a   52.3   52.6   52.3    90   49.5   9.0    SW   1.50  16.0    SW   48.6   52.5   48.8   46.4  30.195  0.00  0.00     0     0.00      0     0.0  0.00   0.0   0.088   0.000   67.5    49   47.7   66.1   9.10  .0751    0.001   204    7    100.0   10 
11/30/20  6:10a   52.5   52.5   52.3    88   49.0  10.0    SW   1.67  14.0   SSW   48.2   52.6   48.3   46.0  30.202  0.00  0.00     0     0.00      0     0.0  0.00   0.0   0.087   0.000   67.7    49   47.8   66.3   9.10  .0751    0.000   203    7    100.0   10 
11/30/20  6:20a   52.6   52.6   52.5    87   48.8  12.0    SW   2.00  16.0    SW   47.3   52.6   47.3   45.2  30.209  0.00  0.00     0     0.00      0     0.0  0.00   0.0   0.086   0.000   67.8    49   47.9   66.4   9.09  .0751    0.000   203    7    100.0   10 
11/30/20  6:30a   50.6   52.6   50.6    85   46.3  16.0   WSW   2.67  24.0     W   43.6   50.6   43.6   41.6  30.216  0.00  0.00     0     0.00      0     0.0  0.00   0.0   0.100   0.000   68.0    49   48.1   66.6   9.09  .0751    0.000   204    7    100.0   10 
11/30/20  6:40a   50.2   50.7   50.2    86   46.2  11.0     W   1.83  18.0     W   45.0   50.3   45.1   42.8  30.218  0.00  0.00     0     0.00      0     0.0  0.00   0.0   0.103   0.000   68.2    49   48.3   66.8   9.09  .0751    0.000   205    7    100.0   10 
11/30/20  6:50a   50.3   50.3   50.2    87   46.6   4.0    SW   0.67   8.0   WSW   49.2   50.5   49.4   46.7  30.220  0.00  0.00     0     0.00      0     0.0  0.00   0.0   0.102   0.000   68.3    50   48.9   67.0   9.28  .0750    0.000   203    7    100.0   10 
11/30/20  7:00a   50.5   50.5   50.3    88   47.1   4.0    SW   0.67   8.0   SSE   49.5   50.7   49.7   47.1  30.226  0.00  0.00     0     0.00      0     0.0  0.00   0.0   0.101   0.000   68.5    50   49.1   67.1   9.28  .0750    0.001   202    7    100.0   10 
11/30/20  7:10a   51.3   51.3   50.5    87   47.6   8.0    SW   1.33  13.0    SW   48.1   51.4   48.2   45.7  30.229  0.00  0.00     0     0.00      0     0.0  0.00   0.0   0.095   0.000   68.8    50   49.4   67.4   9.27  .0750    0.000   203    7    100.0   10 
11/30/20  7:20a   50.1   51.7   50.1    88   46.7  13.0   WSW   2.17  28.0   WSW   44.0   50.3   44.2   42.1  30.237  0.01  0.00     0     0.00      0     0.0  0.00   0.0   0.103   0.000   69.2    50   49.8   67.7   9.27  .0749    0.000   204    7    100.0   10 
11/30/20  7:30a   50.2   50.3   50.0    86   46.2   7.0    SW   1.17  12.0   WSW   47.4   50.3   47.5   44.8  30.241  0.00  0.00     0     0.00      0     0.0  0.00   0.0   0.103   0.000   69.5    49   49.5   67.9   9.06  .0749    0.000   203    7    100.0   10 
11/30/20  7:40a   50.9   50.9   50.2    87   47.2   5.0    SW   0.83   8.0    SW   49.3   51.0   49.4   46.8  30.246  0.00  0.00     3     0.04      5     0.0  0.00   0.0   0.098   0.000   69.7    49   49.7   68.0   9.06  .0749    0.000   203    7    100.0   10 
11/30/20  7:50a   51.6   51.6   50.9    88   48.2   6.0    SW   1.00  10.0   SSW   49.6   51.7   49.7   47.3  30.251  0.00  0.00     9     0.13     11     0.0  0.00   0.0   0.093   0.000   69.7    49   49.7   68.0   9.06  .0749    0.000   204    7    100.0   10 
11/30/20  8:00a   51.9   51.9   51.6    87   48.2   8.0   WSW   1.33  11.0   WSW   48.8   52.0   48.9   46.7  30.258  0.00  0.00    13     0.19     14     0.0  0.00   0.0   0.091   0.000   69.7    49   49.7   68.0   9.06  .0749    0.001   204    7    100.0   10 
11/30/20  8:10a   52.2   52.2   51.8    87   48.4   9.0   WSW   1.50  12.0     W   48.4   52.3   48.5   46.4  30.265  0.00  0.00    13     0.19     14     0.0  0.00   0.0   0.089   0.000   69.5    49   49.5   67.9   9.06  .0750    0.000   203    7    100.0   10 
11/30/20  8:20a   52.1   52.2   52.0    87   48.3   9.0     W   1.50  11.0     W   48.3   52.2   48.4   46.3  30.272  0.00  0.00    14     0.20     16     0.0  0.00   0.0   0.090   0.000   69.4    49   49.4   67.8   9.06  .0750    0.000   203    7    100.0   10 
11/30/20  8:30a   51.9   52.2   51.9    85   47.5   9.0     W   1.50  13.0     W   48.1   51.9   48.1   46.1  30.280  0.00  0.00    20     0.29     23     0.0  0.00   0.0   0.091   0.000   69.4    49   49.4   67.8   9.06  .0750    0.000   202    7    100.0   10 
11/30/20  8:40a   52.0   52.1   51.8    85   47.6  10.0     W   1.67  12.0     W   47.6   52.0   47.6   45.8  30.284  0.00  0.00    26     0.37     30     0.0  0.00   0.0   0.090   0.000   69.3    49   49.3   67.7   9.06  .0750    0.000   204    7    100.0   10 
11/30/20  8:50a   52.0   52.1   51.9    85   47.6   9.0     W   1.50  11.0     W   48.2   52.0   48.2   48.2  30.289  0.00  0.00    43     0.62     53     0.0  0.00   0.0   0.090   0.000   69.4    50   49.9   67.9   9.26  .0750    0.000   203    7    100.0   10 
11/30/20  9:00a   52.1   52.1   52.0    86   48.0   8.0   WSW   1.33  10.0     W   49.0   52.1   49.0   48.8  30.299  0.00  0.00    38     0.54     44     0.0  0.00   0.0   0.090   0.000   69.4    50   49.9   67.9   9.26  .0751    0.001   201    7    100.0   10 
11/30/20  9:10a   51.9   52.1   51.9    86   47.8   7.0   WSW   1.17  10.0     W   49.5   51.9   49.5   49.7  30.307  0.00  0.00    49     0.70     56     0.0  0.00   0.0   0.091   0.000   69.5    50   50.0   67.9   9.26  .0751    0.000   204    7    100.0   10 
11/30/20  9:20a   51.9   51.9   51.7    85   47.5   8.0   WSW   1.33  10.0     W   48.8   51.9   48.8   49.1  30.308  0.00  0.00    51     0.73     76     0.0  0.00   0.0   0.091   0.000   69.5    50   50.0   67.9   9.26  .0751    0.000   205    7    100.0   10 
11/30/20  9:30a   52.0   52.0   51.8    85   47.6   7.0   WSW   1.17  11.0     W   49.6   52.0   49.6   50.1  30.314  0.00  0.00    58     0.83     72     0.0  0.00   0.0   0.090   0.000   69.5    50   50.0   67.9   9.26  .0751    0.000   204    7    100.0   10 
11/30/20  9:40a   52.1   52.2   52.0    85   47.7   9.0   WSW   1.50  11.0     W   48.3   52.1   48.3   48.6  30.316  0.00  0.00    54     0.77     60     0.1  0.01   0.5   0.090   0.000   69.4    50   49.9   67.9   9.26  .0751    0.000   204    7    100.0   10 
11/30/20  9:50a   51.9   52.1   51.9    86   47.8   8.0   WSW   1.33  11.0   WSW   48.8   51.9   48.8   49.6  30.321  0.00  0.00    66     0.95     97     0.5  0.04   0.5   0.091   0.000   69.4    50   49.9   67.9   9.26  .0751    0.000   204    7    100.0   10 
11/30/20 10:00a   52.0   52.1   51.9    86   47.9   6.0   WSW   1.00   9.0     W   50.0   52.0   50.0   52.1  30.327  0.00  0.00   102     1.46    178     0.6  0.04   0.6   0.090   0.000   69.4    50   49.9   67.9   9.26  .0751    0.002   203    7    100.0   10 
11/30/20 10:10a   52.0   52.1   51.9    85   47.6   8.0     W   1.33   9.0     W   48.9   52.0   48.9   50.9  30.334  0.00  0.00   104     1.49    146     0.6  0.04   0.7   0.090   0.000   69.5    50   50.0   67.9   9.26  .0751    0.000   203    7    100.0   10 
11/30/20 10:20a   52.2   52.3   52.0    84   47.5   8.0     W   1.33  10.0     W   49.1   52.1   49.0   55.4  30.337  0.00  0.00   250     3.58    272     0.8  0.06   0.8   0.089   0.000   69.6    50   50.1   68.0   9.26  .0751    0.000   204    7    100.0   10 
11/30/20 10:30a   52.1   52.2   52.1    85   47.7   7.0     W   1.17   9.0     W   49.7   52.1   49.7   53.1  30.341  0.00  0.00   143     2.05    243     0.7  0.05   0.8   0.090   0.000   69.6    50   50.1   68.0   9.26  .0751    0.000   204    7    100.0   10 
11/30/20 10:40a   52.0   52.2   52.0    85   47.6   6.0   WSW   1.00   9.0   WSW   50.0   52.0   50.0   52.2  30.346  0.00  0.00   111     1.59    125     0.7  0.05   0.7   0.090   0.000   69.7    50   50.2   68.1   9.26  .0751    0.000   202    7    100.0   10 
11/30/20 10:50a   52.1   52.1   52.0    85   47.7   6.0   WSW   1.00   9.0     W   50.1   52.1   50.1   52.3  30.351  0.00  0.00   113     1.62    141     0.8  0.06   0.8   0.090   0.000   69.6    50   50.1   68.0   9.26  .0751    0.000   204    7    100.0   10 
11/30/20 11:00a   52.1   52.2   52.0    85   47.7   7.0   WSW   1.17   9.0     W   49.7   52.1   49.7   52.1  30.355  0.00  0.00   122     1.75    141     0.8  0.06   0.8   0.090   0.000   69.6    50   50.1   68.0   9.26  .0752    0.003   203    7    100.0   10 
11/30/20 11:10a   52.1   52.2   52.1    85   47.7   7.0   WSW   1.17   9.0   WSW   49.7   52.1   49.7   53.4  30.356  0.00  0.00   164     2.35    197     0.8  0.06   0.8   0.090   0.000   69.7    49   49.7   68.0   9.06  .0752    0.000   202    7    100.0   10 
11/30/20 11:20a   51.7   52.2   51.7    85   47.3   8.0     W   1.33  12.0   WSW   48.5   51.7   48.5   50.2  30.361  0.00  0.00   105     1.51    132     0.9  0.06   0.9   0.092   0.000   69.7    49   49.7   68.0   9.06  .0752    0.000   203    7    100.0   10 
11/30/20 11:30a   51.9   51.9   51.6    85   47.5   7.0     W   1.17   9.0     W   49.5   51.9   49.5   56.3  30.359  0.00  0.00   275     3.94    360     1.0  0.07   1.1   0.091   0.000   69.9    49   49.9   68.1   9.05  .0751    0.000   203    7    100.0   10 
11/30/20 11:40a   51.9   51.9   51.7    85   47.5   7.0     W   1.17   8.0     W   49.5   51.9   49.5   52.8  30.359  0.00  0.00   153     2.19    200     1.0  0.07   1.1   0.091   0.000   69.9    49   49.9   68.1   9.05  .0751    0.000   202    7    100.0   10 
11/30/20 11:50a   52.0   52.1   51.9    84   47.3   6.0     W   1.00   8.0     W   50.0   52.0   50.0   58.8  30.362  0.00  0.00   365     5.23    374     1.2  0.09   1.2   0.090   0.000   69.9    49   49.9   68.1   9.05  .0751    0.000   202    7    100.0   10 
11/30/20 12:00p   52.1   52.1   51.9    84   47.4   6.0     W   1.00   8.0     W   50.1   52.0   50.0   58.7  30.362  0.00  0.00   358     5.13    367     1.2  0.09   1.2   0.090   0.000   69.9    49   49.9   68.1   9.05  .0751    0.005   203    7    100.0   10 
11/30/20 12:10p   52.2   52.3   52.0    84   47.5   5.0     W   0.83   8.0     W   50.8   52.1   50.7   59.6  30.369  0.00  0.00   371     5.32    380     1.2  0.09   1.2   0.089   0.000   70.0    49   50.0   68.2   9.05  .0751    0.000   201    7    100.0   10 
11/30/20 12:20p   52.3   52.4   52.1    84   47.6   6.0     W   1.00   9.0     W   50.4   52.2   50.3   59.0  30.372  0.00  0.00   364     5.22    373     1.2  0.09   1.2   0.088   0.000   70.1    49   50.0   68.3   9.05  .0751    0.000   203    7    100.0   10 
11/30/20 12:30p   52.3   52.4   52.2    84   47.6   5.0     W   0.83   8.0     W   50.9   52.2   50.8   59.6  30.374  0.00  0.00   368     5.28    371     1.2  0.09   1.2   0.088   0.000   70.1    49   50.0   68.3   9.05  .0751    0.000   203    7    100.0   10 
11/30/20 12:40p   52.4   52.4   52.2    84   47.7   5.0     W   0.83   8.0     W   51.0   52.3   50.9   59.7  30.375  0.00  0.00   369     5.29    381     1.2  0.09   1.2   0.087   0.000   70.2    49   50.1   68.5   9.05  .0751    0.000   204    7    100.0   10 
11/30/20 12:50p   52.3   52.6   52.3    83   47.3   5.0   WSW   0.83   8.0     W   50.9   52.2   50.8   58.4  30.377  0.00  0.00   308     4.42    464     1.0  0.07   1.2   0.088   0.000   70.2    49   50.1   68.5   9.05  .0751    0.000   202    7    100.0   10 
11/30/20  1:00p   52.4   52.4   52.2    84   47.7   5.0   WSW   0.83   9.0   WSW   51.0   52.3   50.9   53.8  30.382  0.00  0.00   144     2.06    281     0.6  0.04   0.7   0.087   0.000   70.2    49   50.1   68.5   9.05  .0751    0.007   204    7    100.0   10 
11/30/20  1:10p   52.0   52.3   51.9    83   47.0   7.0     W   1.17  10.0     W   49.6   51.9   49.5   54.9  30.380  0.00  0.00   230     3.30    285     0.8  0.06   0.9   0.090   0.000   70.3    49   50.2   68.6   9.05  .0751    0.000   203    7    100.0   10 
11/30/20  1:20p   52.1   52.3   52.0    83   47.1   6.0   WSW   1.00  10.0   WSW   50.1   52.0   50.0   55.0  30.384  0.00  0.00   208     2.98    353     0.9  0.06   1.0   0.090   0.000   70.3    49   50.2   68.6   9.05  .0751    0.000   204    7    100.0   10 
11/30/20  1:30p   52.3   52.3   52.1    84   47.6   6.0   WSW   1.00   8.0   WSW   50.4   52.2   50.3   56.7  30.383  0.00  0.00   254     3.64    371     0.8  0.06   0.9   0.088   0.000   70.3    49   50.2   68.6   9.05  .0751    0.000   203    7    100.0   10 
11/30/20  1:40p   52.6   52.7   52.3    84   47.9   5.0   WSW   0.83   8.0   WSW   51.3   52.5   51.2   60.0  30.386  0.00  0.00   391     5.61    446     0.9  0.06   0.9   0.086   0.000   70.3    49   50.2   68.6   9.05  .0751    0.000   204    7    100.0   10 
11/30/20  1:50p   52.3   52.7   52.3    85   47.9   6.0   WSW   1.00  11.0   SSW   50.4   52.3   50.4   53.6  30.391  0.00  0.00   145     2.08    248     0.2  0.01   0.6   0.088   0.000   70.3    49   50.2   68.6   9.05  .0751    0.000   204    7    100.0   10 
11/30/20  2:00p   50.6   52.3   50.2    84   45.9   9.0    SW   1.50  16.0    SW   46.6   50.6   46.6   48.8  30.393  0.00  0.00   124     1.78    211     0.0  0.00   0.0   0.100   0.000   70.3    49   50.2   68.6   9.05  .0751    0.005   204    7    100.0   10 
11/30/20  2:10p   51.2   51.2   50.7    85   46.8   5.0     W   0.83   8.0   WSW   49.6   51.2   49.6   51.6  30.395  0.00  0.00   109     1.56    137     0.6  0.04   0.7   0.096   0.000   70.4    49   50.3   68.7   9.05  .0751    0.000   203    7    100.0   10 
11/30/20  2:20p   52.1   52.1   51.2    85   47.7   4.0     W   0.67   7.0     W   51.3   52.1   51.3   58.0  30.396  0.00  0.00   249     3.57    283     0.6  0.04   0.6   0.090   0.000   70.4    49   50.3   68.7   9.05  .0751    0.000   204    7    100.0   10 
11/30/20  2:30p   53.5   53.5   52.1    86   49.4   1.0    NE   0.17   4.0   WNW   53.5   53.4   53.4   60.9  30.402  0.00  0.00   278     3.99    313     0.4  0.03   0.6   0.080   0.000   70.4    49   50.3   68.7   9.05  .0752    0.000   200    7    100.0   10 
11/30/20  2:40p   53.0   53.5   52.9    85   48.6   2.0    NW   0.33   4.0    NW   53.0   52.9   52.9   54.9  30.404  0.00  0.00   101     1.45    195     0.1  0.01   0.5   0.083   0.000   70.4    49   50.3   68.7   9.05  .0752    0.000   201    7    100.0   10 
11/30/20  2:50p   52.8   53.0   52.7    85   48.4   1.0     N   0.17   5.0    NW   52.8   52.7   52.7   54.6  30.410  0.00  0.00    96     1.38    155     0.0  0.00   0.0   0.085   0.000   70.4    49   50.3   68.7   9.05  .0752    0.000   203    7    100.0   10 
11/30/20  3:00p   53.2   53.2   52.8    85   48.8   1.0   NNE   0.17   3.0   NNE   53.2   53.1   53.1   56.5  30.412  0.00  0.00   135     1.94    209     0.0  0.00   0.0   0.082   0.000   70.5    49   50.4   68.9   9.05  .0752    0.003   205    7    100.0   10 
11/30/20  3:10p   53.6   53.6   53.2    85   49.2   1.0   NNE   0.17   4.0   NNE   53.6   53.5   53.5   57.7  30.416  0.00  0.00   155     2.22    202     0.0  0.00   0.0   0.079   0.000   70.5    49   50.4   68.9   9.05  .0752    0.000   204    7    100.0   10 
11/30/20  3:20p   54.1   54.1   53.6    85   49.7   0.0   NNE   0.00   3.0   NNE   54.1   54.0   54.0   56.6  30.415  0.00  0.00   110     1.58    146     0.0  0.00   0.0   0.076   0.000   70.5    50   51.0   68.9   9.25  .0752    0.000   202    7    100.0   10 
11/30/20  3:30p   53.8   54.2   53.8    84   49.1   0.0   NNE   0.00   2.0   NNE   53.8   53.7   53.7   54.9  30.418  0.00  0.00    71     1.02     76     0.0  0.00   0.0   0.078   0.000   70.5    50   51.0   68.9   9.25  .0752    0.000   204    7    100.0   10 
11/30/20  3:40p   52.5   53.8   52.5    85   48.1   2.0   NNW   0.33   4.0   NNW   52.5   52.5   52.5   53.0  30.419  0.00  0.00    56     0.80     60     0.0  0.00   0.0   0.087   0.000   70.6    50   51.1   69.1   9.25  .0751    0.000   204    7    100.0   10 
11/30/20  3:50p   51.7   52.6   51.7    87   48.0   2.0   SSW   0.33   4.0    SW   51.7   51.8   51.8   52.8  30.422  0.00  0.00    66     0.95     79     0.0  0.00   0.0   0.092   0.000   70.6    50   51.1   69.1   9.25  .0752    0.000   201    7    100.0   10 
11/30/20  4:00p   51.5   51.7   51.5    88   48.1   1.0     S   0.17   3.0     S   51.5   51.6   51.6   52.6  30.428  0.00  0.00    67     0.96     77     0.0  0.00   0.0   0.094   0.000   70.6    50   51.1   69.1   9.25  .0752    0.002   202    7    100.0   10 
11/30/20  4:10p   51.2   51.6   51.2    88   47.8   1.0   SSW   0.17   3.0    SW   51.2   51.3   51.3   51.2  30.429  0.00  0.00    42     0.60     51     0.0  0.00   0.0   0.096   0.000   70.6    50   51.1   69.1   9.25  .0752    0.000   201    7    100.0   10 
11/30/20  4:20p   50.9   51.2   50.9    88   47.5   0.0    SW   0.00   4.0     W   50.9   51.0   51.0   48.8  30.432  0.00  0.00    25     0.36     33     0.0  0.00   0.0   0.098   0.000   70.6    50   51.1   69.1   9.25  .0752    0.000   204    7    100.0   10 
11/30/20  4:30p   50.4   50.9   50.3    88   47.0   1.0   SSE   0.17   3.0   SSE   50.4   50.6   50.6   48.2  30.434  0.00  0.00    17     0.24     19     0.0  0.00   0.0   0.101   0.000   70.5    50   51.0   68.9   9.25  .0752    0.000   203    7    100.0   10 
11/30/20  4:40p   49.8   50.3   49.8    88   46.4   0.0   SSE   0.00   2.0   SSE   49.8   50.0   50.0   47.4  30.437  0.00  0.00     8     0.11     12     0.0  0.00   0.0   0.106   0.000   70.5    50   51.0   68.9   9.25  .0752    0.000   202    7    100.0   10 
11/30/20  4:50p   49.3   49.8   49.2    89   46.2   0.0   SSE   0.00   2.0   SSE   49.3   49.6   49.6   46.9  30.440  0.00  0.00     2     0.03      5     0.0  0.00   0.0   0.109   0.000   70.5    50   51.0   68.9   9.25  .0752    0.000   203    7    100.0   10 
11/30/20  5:00p   48.8   49.3   48.8    89   45.7   0.0   ---   0.00   0.0   ---   48.8   49.0   49.0   46.2  30.442  0.00  0.00     0     0.00      0     0.0  0.00   0.0   0.113   0.000   70.5    50   51.0   68.9   9.25  .0752    0.000   203    7    100.0   10 
11/30/20  5:10p   48.0   48.7   48.0    89   44.9   0.0   SSE   0.00   2.0   SSE   48.0   48.2   48.2   45.3  30.442  0.00  0.00     0     0.00      0     0.0  0.00   0.0   0.118   0.000   70.5    50   51.0   68.9   9.25  .0752    0.000   201    7    100.0   10 
11/30/20  5:20p   47.9   48.1   47.9    90   45.1   0.0   SSE   0.00   1.0   SSE   47.9   48.1   48.1   45.3  30.446  0.00  0.00     0     0.00      0     0.0  0.00   0.0   0.119   0.000   70.4    50   50.9   68.8   9.25  .0752    0.000   202    7    100.0   10 
11/30/20  5:30p   47.4   47.9   47.4    90   44.6   0.0   SSE   0.00   2.0   SSE   47.4   47.6   47.6   44.7  30.450  0.00  0.00     0     0.00      0     0.0  0.00   0.0   0.122   0.000   70.4    50   50.9   68.8   9.25  .0753    0.000   205    7    100.0   10 
11/30/20  5:40p   47.1   47.4   47.1    90   44.3   0.0   ---   0.00   0.0   ---   47.1   47.3   47.3   44.4  30.454  0.00  0.00     0     0.00      0     0.0  0.00   0.0   0.124   0.000   70.4    50   50.9   68.8   9.25  .0753    0.000   201    7    100.0   10 
11/30/20  5:50p   47.1   47.1   47.0    91   44.6   0.0   ---   0.00   0.0   ---   47.1   47.3   47.3   44.4  30.460  0.00  0.00     0     0.00      0     0.0  0.00   0.0   0.124   0.000   70.3    50   50.8   68.7   9.25  .0753    0.000   204    7    100.0   10 
11/30/20  6:00p   47.0   47.2   47.0    91   44.5   0.0   ---   0.00   0.0   ---   47.0   47.2   47.2   44.3  30.463  0.00  0.00     0     0.00      0     0.0  0.00   0.0   0.125   0.000   70.3    50   50.8   68.7   9.25  .0753    0.000   201    7    100.0   10 
11/30/20  6:10p   46.7   47.1   46.7    90   43.9   0.0   ---   0.00   0.0   ---   46.7   46.9   46.9   44.0  30.464  0.00  0.00     0     0.00      0     0.0  0.00   0.0   0.127   0.000   70.3    50   50.8   68.7   9.25  .0753    0.000   204    7    100.0   10 
11/30/20  6:20p   46.3   46.7   46.3    90   43.5   0.0   ---   0.00   0.0   ---   46.3   46.4   46.4   43.5  30.468  0.00  0.00     0     0.00      0     0.0  0.00   0.0   0.130   0.000   70.3    50   50.8   68.7   9.25  .0753    0.000   202    7    100.0   10 
11/30/20  6:30p   46.1   46.3   46.1    90   43.3   0.0   ---   0.00   0.0   ---   46.1   46.2   46.2   43.3  30.468  0.00  0.00     0     0.00      0     0.0  0.00   0.0   0.131   0.000   70.3    50   50.8   68.7   9.25  .0753    0.000   204    7    100.0   10 
11/30/20  6:40p   45.9   46.1   45.9    91   43.4   0.0   ---   0.00   0.0   ---   45.9   46.0   46.0   43.1  30.471  0.00  0.00     0     0.00      0     0.0  0.00   0.0   0.133   0.000   70.2    50   50.7   68.6   9.25  .0753    0.000   202    7    100.0   10 
11/30/20  6:50p   45.8   45.9   45.8    91   43.3   0.0   SSE   0.00   1.0   SSE   45.8   45.9   45.9   43.0  30.472  0.00  0.00     0     0.00      0     0.0  0.00   0.0   0.133   0.000   70.2    50   50.7   68.6   9.25  .0753    0.000   202    7    100.0   10 
11/30/20  7:00p   45.6   45.8   45.6    91   43.1   0.0   ---   0.00   0.0   ---   45.6   45.7   45.7   42.8  30.474  0.00  0.00     0     0.00      0     0.0  0.00   0.0   0.135   0.000   70.1    50   50.6   68.4   9.25  .0754    0.000   203    7    100.0   10 
11/30/20  7:10p   45.5   45.7   45.5    91   43.0   0.0   ---   0.00   0.0   ---   45.5   45.6   45.6   42.7  30.476  0.00  0.00     0     0.00      0     0.0  0.00   0.0   0.135   0.000   70.1    50   50.6   68.4   9.25  .0754    0.000   202    7    100.0   10 
11/30/20  7:20p   45.2   45.5   45.2    91   42.7   2.0   ESE   0.33   6.0     E   45.2   45.3   45.3   42.4  30.478  0.00  0.00     0     0.00      0     0.0  0.00   0.0   0.137   0.000   70.0    50   50.5   68.3   9.25  .0754    0.000   204    7    100.0   10 
11/30/20  7:30p   45.2   45.3   45.1    91   42.7   3.0   ESE   0.50   7.0     E   44.2   45.3   44.3   41.4  30.481  0.00  0.00     0     0.00      0     0.0  0.00   0.0   0.137   0.000   70.0    50   50.5   68.3   9.25  .0754    0.000   205    7    100.0   10 
11/30/20  7:40p   45.0   45.2   45.0    91   42.5   4.0   ESE   0.67   7.0    SE   43.1   45.1   43.2   40.3  30.485  0.00  0.00     0     0.00      0     0.0  0.00   0.0   0.139   0.000   70.0    50   50.5   68.3   9.25  .0754    0.000   203    7    100.0   10 
11/30/20  7:50p   45.1   45.2   45.0    91   42.6   4.0   ESE   0.67   7.0   ESE   43.2   45.2   43.3   40.4  30.491  0.00  0.00     0     0.00      0     0.0  0.00   0.0   0.138   0.000   69.9    50   50.4   68.2   9.25  .0754    0.000   204    7    100.0   10 
11/30/20  8:00p   45.1   45.2   45.1    91   42.6   3.0   ESE   0.50   6.0     E   44.1   45.2   44.2   41.3  30.489  0.00  0.00     0     0.00      0     0.0  0.00   0.0   0.138   0.000   69.9    50   50.4   68.2   9.25  .0754    0.000   203    7    100.0   10 
11/30/20  8:10p   45.2   45.2   45.1    91   42.7   4.0   ESE   0.67   7.0   ESE   43.3   45.3   43.4   40.5  30.490  0.00  0.00     0     0.00      0     0.0  0.00   0.0   0.137   0.000   69.9    50   50.4   68.2   9.25  .0754    0.000   204    7    100.0   10 
11/30/20  8:20p   45.1   45.2   45.1    91   42.6   4.0   ESE   0.67   8.0   ESE   43.2   45.2   43.3   40.4  30.497  0.00  0.00     0     0.00      0     0.0  0.00   0.0   0.138   0.000   69.8    50   50.3   68.2   9.25  .0755    0.000   201    7    100.0   10 
11/30/20  8:30p   45.1   45.2   45.1    91   42.6   4.0   ESE   0.67   7.0   ESE   43.2   45.2   43.3   40.4  30.500  0.00  0.00     0     0.00      0     0.0  0.00   0.0   0.138   0.000   69.8    50   50.3   68.2   9.25  .0755    0.000   202    7    100.0   10 
11/30/20  8:40p   45.0   45.2   45.0    91   42.5   5.0   ESE   0.83   9.0    SE   42.3   45.1   42.4   39.5  30.500  0.00  0.00     0     0.00      0     0.0  0.00   0.0   0.139   0.000   69.8    50   50.3   68.2   9.25  .0755    0.000   204    7    100.0   10 
11/30/20  8:50p   45.0   45.0   44.9    91   42.5   4.0   ESE   0.67   7.0   ESE   43.1   45.1   43.2   40.3  30.502  0.00  0.00     0     0.00      0     0.0  0.00   0.0   0.139   0.000   69.7    50   50.2   68.1   9.26  .0755    0.000   204    7    100.0   10 
11/30/20  9:00p   45.1   45.1   44.9    91   42.6   3.0   ESE   0.50   8.0   SSE   44.1   45.2   44.2   41.3  30.504  0.00  0.00     0     0.00      0     0.0  0.00   0.0   0.138   0.000   69.7    49   49.7   68.0   9.06  .0755    0.000   202    7    100.0   10 
11/30/20  9:10p   45.1   45.2   45.1    91   42.6   3.0   ESE   0.50   6.0   ESE   44.1   45.2   44.2   41.3  30.503  0.00  0.00     0     0.00      0     0.0  0.00   0.0   0.138   0.000   69.6    49   49.6   67.9   9.06  .0755    0.000   200    7    100.0   10 
11/30/20  9:20p   45.0   45.2   45.0    91   42.5   4.0   ESE   0.67   8.0   ESE   43.1   45.1   43.2   40.3  30.506  0.00  0.00     0     0.00      0     0.0  0.00   0.0   0.139   0.000   69.5    49   49.5   67.9   9.06  .0756    0.000   205    7    100.0   10 
11/30/20  9:30p   44.3   45.1   44.3    90   41.6   5.0   ESE   0.83   8.0    SE   41.5   44.4   41.6   38.6  30.509  0.00  0.00     0     0.00      0     0.0  0.00   0.0   0.144   0.000   69.4    49   49.4   67.8   9.06  .0756    0.000   202    7    100.0   10 
11/30/20  9:40p   43.9   44.4   43.9    91   41.4   6.0     E   1.00   9.0   ESE   40.4   44.0   40.5   37.5  30.509  0.00  0.00     0     0.00      0     0.0  0.00   0.0   0.147   0.000   69.4    49   49.4   67.8   9.06  .0756    0.000   202    7    100.0   10 
11/30/20  9:50p   43.8   43.9   43.8    91   41.3   5.0   ESE   0.83   9.0   SSE   41.0   43.9   41.1   38.1  30.512  0.00  0.00     0     0.00      0     0.0  0.00   0.0   0.147   0.000   69.3    49   49.3   67.7   9.06  .0756    0.000   200    7    100.0   10 
11/30/20 10:00p   43.6   43.9   43.6    92   41.4   5.0   ESE   0.83   9.0   ESE   40.7   43.7   40.8   37.8  30.518  0.00  0.00     0     0.00      0     0.0  0.00   0.0   0.149   0.000   69.3    49   49.3   67.7   9.06  .0756    0.000   202    7    100.0   10 
11/30/20 10:10p   43.8   43.8   43.6    92   41.6   5.0   ESE   0.83   8.0   ESE   41.0   43.9   41.1   38.1  30.519  0.00  0.00     0     0.00      0     0.0  0.00   0.0   0.147   0.000   69.2    49   49.2   67.6   9.07  .0757    0.000   203    7    100.0   10 
11/30/20 10:20p   43.9   43.9   43.7    92   41.7   5.0   ESE   0.83   8.0   SSE   41.1   44.0   41.2   38.2  30.518  0.00  0.00     0     0.00      0     0.0  0.00   0.0   0.147   0.000   69.1    49   49.1   67.6   9.07  .0757    0.000   204    7    100.0   10 
11/30/20 10:30p   43.9   44.0   43.8    92   41.7   5.0   ESE   0.83   9.0   ESE   41.1   44.0   41.2   38.2  30.522  0.00  0.00     0     0.00      0     0.0  0.00   0.0   0.147   0.000   69.0    49   49.0   67.5   9.07  .0757    0.000   203    7    100.0   10 
11/30/20 10:40p   43.8   44.0   43.8    92   41.6   5.0   ESE   0.83   9.0   ESE   41.0   43.9   41.1   38.1  30.522  0.00  0.00     0     0.00      0     0.0  0.00   0.0   0.147   0.000   69.0    49   49.0   67.5   9.07  .0757    0.000   203    7    100.0   10 
11/30/20 10:50p   43.4   43.8   43.4    92   41.2   6.0   ESE   1.00   9.0   ESE   39.8   43.5   39.9   36.9  30.523  0.00  0.00     0     0.00      0     0.0  0.00   0.0   0.150   0.000   68.9    49   48.9   67.4   9.07  .0757    0.000   203    7    100.0   10 
11/30/20 11:00p   43.2   43.5   43.2    92   41.0   6.0     E   1.00   9.0     E   39.5   43.3   39.6   36.6  30.521  0.00  0.00     0     0.00      0     0.0  0.00   0.0   0.151   0.000   68.8    49   48.9   67.3   9.07  .0757    0.000   203    7    100.0   10 
11/30/20 11:10p   43.2   43.3   43.2    92   41.0   5.0   ESE   0.83   9.0     E   40.2   43.3   40.3   37.3  30.525  0.00  0.00     0     0.00      0     0.0  0.00   0.0   0.151   0.000   68.8    49   48.9   67.3   9.07  .0757    0.000   202    7    100.0   10 
11/30/20 11:20p   43.2   43.3   43.1    92   41.0   5.0   ESE   0.83   8.0   ESE   40.2   43.3   40.3   37.3  30.527  0.00  0.00     0     0.00      0     0.0  0.00   0.0   0.151   0.000   68.7    49   48.8   67.2   9.08  .0758    0.000   203    7    100.0   10 
11/30/20 11:30p   43.2   43.4   43.2    92   41.0   5.0   ESE   0.83   9.0   ENE   40.2   43.3   40.3   37.3  30.534  0.00  0.00     0     0.00      0     0.0  0.00   0.0   0.151   0.000   68.7    49   48.8   67.2   9.08  .0758    0.000   204    7    100.0   10 
11/30/20 11:40p   42.5   43.2   42.5    92   40.3   7.0     E   1.17  11.0   ENE   38.2   42.5   38.2   35.2  30.533  0.00  0.00     0     0.00      0     0.0  0.00   0.0   0.156   0.000   68.6    49   48.7   67.1   9.08  .0758    0.000   202    7    100.0   10 
11/30/20 11:50p   42.5   42.6   42.4    92   40.3   6.0   ESE   1.00  12.0   ESE   38.7   42.5   38.7   35.7  30.536  0.00  0.00     0     0.00      0     0.0  0.00   0.0   0.156   0.000   68.5    49   48.6   67.1   9.08  .0758    0.000   204    7    100.0   10 
12/01/20 12:00a   42.7   42.7   42.5    92   40.5   5.0   ESE   0.83   9.0    SE   39.6   42.7   39.6   36.6  30.533  0.00  0.00     0     0.00      0     0.0  0.00   0.0   0.155   0.000   68.5    49   48.6   67.1   9.08  .0758    0.000   203    7    100.0   10 
12/01/20 12:10a   43.0   43.1   42.7    93   41.1   5.0   ESE   0.83   9.0   ESE   40.0   43.1   40.1   37.1  30.528  0.00  0.00     0     0.00      0     0.0  0.00   0.0   0.153   0.000   68.4    49   48.5   67.0   9.08  .0758    0.000   201    7    100.0   10 
12/01/20 12:20a   43.2   43.3   43.1    92   41.0   5.0   ESE   0.83  10.0   SSE   40.2   43.3   40.3   37.3  30.528  0.00  0.00     0     0.00      0     0.0  0.00   0.0   0.151   0.000   68.4    49   48.5   67.0   9.08  .0758    0.000   203    7    100.0   10 
12/01/20 12:30a   43.2   43.3   43.2    92   41.0   5.0   ESE   0.83   8.0     E   40.2   43.3   40.3   37.3  30.528  0.00  0.00     0     0.00      0     0.0  0.00   0.0   0.151   0.000   68.3    49   48.4   66.9   9.08  .0758    0.000   204    7    100.0   10 
12/01/20 12:40a   42.9   43.3   42.9    92   40.7   4.0   ESE   0.67   9.0   ESE   40.7   42.9   40.7   37.7  30.525  0.00  0.00     0     0.00      0     0.0  0.00   0.0   0.153   0.000   68.2    49   48.3   66.8   9.09  .0758    0.000   204    7    100.0   10 
12/01/20 12:50a   42.0   43.0   42.0    91   39.6   7.0     E   1.17  11.0    SE   37.5   42.0   37.5   34.5  30.526  0.00  0.00     0     0.00      0     0.0  0.00   0.0   0.160   0.000   68.2    49   48.3   66.8   9.09  .0758    0.000   202    7    100.0   10 
12/01/20  1:00a   41.0   42.0   41.0    92   38.9   8.0     E   1.33  13.0   ENE   35.8   41.0   35.8   32.9  30.525  0.00  0.00     0     0.00      0     0.0  0.00   0.0   0.167   0.000   68.1    49   48.2   66.7   9.09  .0759    0.000   203    7    100.0   10 
12/01/20  1:10a   40.8   41.1   40.7    92   38.7   8.0     E   1.33  13.0     E   35.6   40.8   35.6   32.7  30.527  0.00  0.00     0     0.00      0     0.0  0.00   0.0   0.168   0.000   68.0    49   48.1   66.6   9.09  .0759    0.000   202    7    100.0   10 
12/01/20  1:20a   41.0   41.2   40.8    92   38.9   9.0     E   1.50  14.0   SSE   35.3   41.0   35.3   32.5  30.530  0.00  0.00     0     0.00      0     0.0  0.00   0.0   0.167   0.000   68.0    49   48.1   66.6   9.09  .0759    0.000   202    7    100.0   10 
12/01/20  1:30a   40.6   41.0   40.6    92   38.5   9.0     E   1.50  14.0     E   34.8   40.6   34.8   32.0  30.532  0.00  0.00     0     0.00      0     0.0  0.00   0.0   0.169   0.000   67.9    49   48.0   66.5   9.09  .0759    0.000   202    7    100.0   10 
12/01/20  1:40a   40.4   40.7   40.4    93   38.5   9.0     E   1.50  14.0   ESE   34.6   40.4   34.6   31.8  30.534  0.00  0.00     0     0.00      0     0.0  0.00   0.0   0.171   0.000   67.9    48   47.5   66.4   8.89  .0759    0.000   202    7    100.0   10 
12/01/20  1:50a   40.4   40.4   40.3    93   38.5   8.0     E   1.33  12.0     E   35.1   40.4   35.1   32.2  30.532  0.00  0.00     0     0.00      0     0.0  0.00   0.0   0.171   0.000   67.8    48   47.4   66.3   8.89  .0759    0.000   204    7    100.0   10 
12/01/20  2:00a   40.5   40.5   40.3    93   38.6   8.0     E   1.33  13.0     E   35.2   40.5   35.2   32.3  30.536  0.00  0.00     0     0.00      0     0.0  0.00   0.0   0.170   0.000   67.7    48   47.3   66.2   8.90  .0760    0.000   203    7    100.0   10 
12/01/20  2:10a   40.3   40.5   40.3    93   38.4   8.0     E   1.33  12.0    SE   35.0   40.3   35.0   32.1  30.534  0.00  0.00     0     0.00      0     0.0  0.00   0.0   0.172   0.000   67.6    48   47.2   66.1   8.90  .0760    0.000   203    7    100.0   10 
12/01/20  2:20a   40.3   40.4   40.3    92   38.2   8.0     E   1.33  13.0   ENE   35.0   40.3   35.0   32.1  30.540  0.00  0.00     0     0.00      0     0.0  0.00   0.0   0.172   0.000   67.5    48   47.1   65.9   8.90  .0760    0.000   201    7    100.0   10 
12/01/20  2:30a   40.2   40.3   40.1    92   38.1   8.0     E   1.33  12.0     E   34.8   40.2   34.8   31.9  30.543  0.00  0.00     0     0.00      0     0.0  0.00   0.0   0.172   0.000   67.4    48   47.0   65.8   8.90  .0760    0.000   203    7    100.0   10 
12/01/20  2:40a   40.3   40.3   40.2    93   38.4   7.0     E   1.17  13.0   ESE   35.5   40.3   35.5   32.4  30.541  0.00  0.00     0     0.00      0     0.0  0.00   0.0   0.172   0.000   67.4    48   47.0   65.8   8.90  .0760    0.000   203    7    100.0   10 
12/01/20  2:50a   40.5   40.5   40.3    93   38.6   7.0     E   1.17  12.0     E   35.7   40.5   35.7   32.6  30.543  0.00  0.00     0     0.00      0     0.0  0.00   0.0   0.170   0.000   67.3    48   46.9   65.7   8.90  .0761    0.000   203    7    100.0   10 
12/01/20  3:00a   40.6   40.8   40.5    92   38.5   7.0     E   1.17  12.0   ESE   35.8   40.6   35.8   32.7  30.542  0.00  0.00     0     0.00      0     0.0  0.00   0.0   0.169   0.000   67.2    48   46.8   65.6   8.91  .0761    0.000   203    7    100.0   10 
12/01/20  3:10a   40.9   40.9   40.7    93   39.0   7.0     E   1.17  10.0    SE   36.2   40.9   36.2   33.2  30.539  0.00  0.00     0     0.00      0     0.0  0.00   0.0   0.167   0.000   67.2    48   46.8   65.6   8.91  .0761    0.000   203    7    100.0   10 
12/01/20  3:20a   41.0   41.1   40.9    92   38.9   7.0     E   1.17  10.0   SSE   36.3   41.0   36.3   33.2  30.537  0.00  0.00     0     0.00      0     0.0  0.00   0.0   0.167   0.000   67.1    48   46.7   65.5   8.91  .0761    0.000   201    7    100.0   10 
12/01/20  3:30a   40.6   41.0   40.6    92   38.5   7.0     E   1.17  11.0     E   35.8   40.6   35.8   32.7  30.536  0.00  0.00     0     0.00      0     0.0  0.00   0.0   0.169   0.000   67.0    48   46.7   65.4   8.91  .0761    0.000   202    7    100.0   10 
12/01/20  3:40a   40.3   40.6   40.3    92   38.2   7.0   ESE   1.17  12.0   ESE   35.5   40.3   35.5   32.4  30.532  0.00  0.00     0     0.00      0     0.0  0.00   0.0   0.172   0.000   67.0    48   46.7   65.4   8.91  .0761    0.000   202    7    100.0   10 
12/01/20  3:50a   40.0   40.3   40.0    92   37.9   8.0   ESE   1.33  13.0   ESE   34.6   40.0   34.6   31.7  30.527  0.00  0.00     0     0.00      0     0.0  0.00   0.0   0.174   0.000   66.9    48   46.6   65.3   8.91  .0761    0.000   201    7    100.0   10 
12/01/20  4:00a   39.7   40.0   39.7    92   37.6   8.0     E   1.33  14.0   ESE   34.2   39.7   34.2   31.3  30.527  0.00  0.00     0     0.00      0     0.0  0.00   0.0   0.176   0.000   66.8    48   46.5   65.2   8.91  .0761    0.000   204    7    100.0   10 
12/01/20  4:10a   39.7   39.7   39.6    92   37.6   8.0     E   1.33  13.0   ESE   34.2   39.7   34.2   31.3  30.531  0.00  0.00     0     0.00      0     0.0  0.00   0.0   0.176   0.000   66.7    48   46.4   65.0   8.92  .0761    0.000   202    7    100.0   10 
12/01/20  4:20a   40.0   40.0   39.6    92   37.9   7.0     E   1.17  14.0   ESE   35.1   40.0   35.1   32.0  30.528  0.00  0.00     0     0.00      0     0.0  0.00   0.0   0.174   0.000   66.7    48   46.4   65.0   8.92  .0761    0.000   203    7    100.0   10 
12/01/20  4:30a   39.8   40.1   39.8    92   37.7   8.0     E   1.33  13.0   ESE   34.3   39.8   34.3   31.4  30.528  0.00  0.00     0     0.00      0     0.0  0.00   0.0   0.175   0.000   66.6    48   46.3   64.9   8.92  .0761    0.000   204    7    100.0   10 
12/01/20  4:40a   39.6   39.8   39.5    92   37.5   8.0     E   1.33  13.0     E   34.1   39.6   34.1   31.2  30.526  0.00  0.00     0     0.00      0     0.0  0.00   0.0   0.176   0.000   66.5    48   46.2   64.8   8.92  .0762    0.000   203    7    100.0   10 
12/01/20  4:50a   39.1   39.6   39.1    92   37.0   9.0     E   1.50  15.0     E   33.0   39.0   32.9   30.0  30.528  0.00  0.00     0     0.00      0     0.0  0.00   0.0   0.180   0.000   66.5    48   46.2   64.8   8.92  .0762    0.000   201    7    100.0   10 
12/01/20  5:00a   39.0   39.1   39.0    92   36.9   9.0     E   1.50  13.0   ENE   32.9   38.9   32.8   29.9  30.529  0.00  0.00     0     0.00      0     0.0  0.00   0.0   0.181   0.000   66.4    48   46.1   64.7   8.92  .0762    0.000   204    7    100.0   10 
12/01/20  5:10a   39.0   39.0   38.9    92   36.9   9.0     E   1.50  13.0    SE   32.9   38.9   32.8   29.9  30.528  0.00  0.00     0     0.00      0     0.0  0.00   0.0   0.181   0.000   66.3    48   46.0   64.6   8.92  .0762    0.000   203    7    100.0   10 
12/01/20  5:20a   38.9   39.1   38.9    92   36.8   9.0     E   1.50  13.0     E   32.7   38.8   32.6   29.7  30.528  0.00  0.00     0     0.00      0     0.0  0.00   0.0   0.181   0.000   66.2    48   45.9   64.4   8.93  .0762    0.000   202    7    100.0   10 
12/01/20  5:30a   38.6   38.9   38.6    92   36.5   9.0     E   1.50  14.0     E   32.4   38.5   32.3   29.4  30.524  0.00  0.00     0     0.00      0     0.0  0.00   0.0   0.183   0.000   66.1    48   45.8   64.3   8.93  .0762    0.000   202    7    100.0   10 
12/01/20  5:40a   38.3   38.6   38.3    92   36.2  10.0     E   1.67  15.0     E   31.5   38.2   31.4   28.6  30.526  0.00  0.00     0     0.00      0     0.0  0.00   0.0   0.185   0.000   66.2    48   45.9   64.4   8.93  .0762    0.000   204    7    100.0   10 
12/01/20  5:50a   38.3   38.4   38.3    92   36.2  10.0     E   1.67  15.0   ESE   31.5   38.2   31.4   28.6  30.535  0.00  0.00     0     0.00      0     0.0  0.00   0.0   0.185   0.000   66.4    48   46.1   64.7   8.92  .0762    0.000   204    7    100.0   10 
12/01/20  6:00a   38.2   38.3   38.2    92   36.1   8.0     E   1.33  13.0   ESE   32.4   38.1   32.3   29.3  30.531  0.00  0.00     0     0.00      0     0.0  0.00   0.0   0.186   0.000   66.6    48   46.3   64.9   8.92  .0762    0.000   203    7    100.0   10 
12/01/20  6:10a   38.8   38.8   38.2    93   36.9   4.0   ESE   0.67   9.0     E   35.9   38.8   35.9   32.7  30.527  0.00  0.00     0     0.00      0     0.0  0.00   0.0   0.182   0.000   66.8    48   46.5   65.2   8.91  .0761    0.000   200    7    100.0   10 
12/01/20  6:20a   39.0   39.1   38.9    92   36.9   3.0     E   0.50   5.0     E   37.2   38.9   37.1   33.9  30.529  0.00  0.00     0     0.00      0     0.0  0.00   0.0   0.181   0.000   67.0    48   46.7   65.4   8.91  .0761    0.000   205    7    100.0   10 
12/01/20  6:30a   39.3   39.3   39.0    92   37.2   3.0   ESE   0.50   7.0   ESE   37.6   39.3   37.6   34.5  30.529  0.00  0.00     0     0.00      0     0.0  0.00   0.0   0.178   0.000   67.3    48   46.9   65.7   8.90  .0760    0.000   202    7    100.0   10 
12/01/20  6:40a   38.5   39.3   38.5    91   36.1   4.0   ESE   0.67  10.0   ESE   35.6   38.4   35.5   32.3  30.528  0.00  0.00     0     0.00      0     0.0  0.00   0.0   0.184   0.000   67.5    48   47.1   65.9   8.90  .0760    0.000   203    7    100.0   10 
12/01/20  6:50a   38.4   38.6   38.4    92   36.3   6.0   ESE   1.00  11.0     E   33.9   38.3   33.8   30.6  30.529  0.00  0.00     0     0.00      0     0.0  0.00   0.0   0.185   0.000   67.8    48   47.4   66.3   8.89  .0759    0.000   204    7    100.0   10 
12/01/20  7:00a   38.5   38.5   38.3    92   36.4   5.0     E   0.83  10.0   ESE   34.7   38.4   34.6   31.4  30.526  0.00  0.00     0     0.00      0     0.0  0.00   0.0   0.184   0.000   68.0    48   47.6   66.5   8.89  .0759    0.000   204    7    100.0   10 
12/01/20  7:10a   38.8   38.8   38.5    92   36.7   5.0   ESE   0.83  11.0   SSE   35.1   38.7   35.0   31.8  30.526  0.00  0.00     0     0.00      0     0.0  0.00   0.0   0.182   0.000   68.1    49   48.2   66.7   9.09  .0759    0.000   201    7    100.0   10 
12/01/20  7:20a   38.8   39.0   38.8    92   36.7   5.0     E   0.83  10.0     E   35.1   38.7   35.0   31.8  30.526  0.00  0.00     0     0.00      0     0.0  0.00   0.0   0.182   0.000   68.2    49   48.3   66.8   9.09  .0758    0.000   204    7    100.0   10 
12/01/20  7:30a   38.4   38.8   38.4    92   36.3   7.0     E   1.17  12.0     E   33.2   38.3   33.1   30.0  30.523  0.00  0.00     1     0.01      5     0.0  0.00   0.0   0.185   0.000   68.3    49   48.4   66.9   9.08  .0758    0.000   205    7    100.0   10 
12/01/20  7:40a   37.9   38.4   37.9    92   35.8   7.0     E   1.17  11.0     E   32.6   37.8   32.5   29.5  30.519  0.00  0.00     6     0.09      9     0.0  0.00   0.0   0.188   0.000   68.4    48   47.9   66.9   8.88  .0758    0.000   202    7    100.0   10 
12/01/20  7:50a   38.6   38.6   37.9    92   36.5   7.0     E   1.17  13.0   ESE   33.5   38.5   33.4   30.5  30.518  0.00  0.00    11     0.16     12     0.0  0.00   0.0   0.183   0.000   68.4    48   47.9   66.9   8.88  .0758    0.000   201    7    100.0   10 
12/01/20  8:00a   38.2   38.6   38.2    92   36.1   8.0     E   1.33  15.0     E   32.4   38.1   32.3   29.6  30.517  0.00  0.00    14     0.20     16     0.0  0.00   0.0   0.186   0.000   68.5    48   48.0   66.9   8.88  .0758    0.000   203    7    100.0   10 
12/01/20  8:10a   38.0   38.3   38.0    92   35.9   8.0     E   1.33  13.0     E   32.2   37.9   32.1   29.4  30.517  0.00  0.00    18     0.26     19     0.0  0.00   0.0   0.188   0.000   68.5    48   48.0   66.9   8.88  .0758    0.000   202    7    100.0   10 
12/01/20  8:20a   38.1   38.2   37.9    92   36.0   8.0     E   1.33  13.0     E   32.3   38.0   32.2   29.6  30.515  0.00  0.00    21     0.30     23     0.0  0.00   0.0   0.187   0.000   68.5    47   47.5   66.8   8.78  .0758    0.000   202    7    100.0   10 
12/01/20  8:30a   38.0   38.2   38.0    92   35.9   7.0     E   1.17  13.0   ESE   32.7   37.9   32.6   30.0  30.513  0.00  0.00    24     0.34     25     0.0  0.00   0.0   0.188   0.000   68.6    47   47.6   66.9   8.78  .0758    0.000   202    7    100.0   10 
12/01/20  8:40a   38.1   38.1   37.9    93   36.3   7.0     E   1.17  11.0    SE   32.8   38.1   32.8   30.3  30.513  0.00  0.00    26     0.37     28     0.0  0.00   0.0   0.187   0.000   68.6    47   47.6   66.9   8.78  .0758    0.000   204    7    100.0   10 
12/01/20  8:50a   38.7   38.7   38.1    93   36.9   7.0     E   1.17  15.0     E   33.6   38.7   33.6   32.6  30.516  0.00  0.00    29     0.42     32     0.0  0.00   0.0   0.183   0.000   68.7    47   47.6   67.0   8.78  .0758    0.000   204    7    100.0   10 
12/01/20  9:00a   39.3   39.3   38.7    93   37.4   6.0     E   1.00  10.0     E   34.9   39.3   34.9   34.1  30.512  0.00  0.00    32     0.46     32     0.0  0.00   0.0   0.178   0.000   68.7    47   47.6   67.0   8.78  .0758    0.001   202    7    100.0   10 
12/01/20  9:10a   39.9   39.9   39.3    93   38.0   6.0     E   1.00  10.0   ENE   35.6   39.9   35.6   36.1  30.506  0.00  0.00    62     0.89    149     0.0  0.00   0.0   0.174   0.000   68.8    47   47.7   67.1   8.77  .0757    0.000   204    7    100.0   10 
12/01/20  9:20a   40.6   40.7   40.0    92   38.5   7.0     E   1.17  11.0     E   35.8   40.6   35.8   39.6  30.503  0.00  0.00   163     2.34    174     0.0  0.00   0.0   0.169   0.000   68.9    47   47.8   67.2   8.77  .0757    0.000   202    7    100.0   10 
12/01/20  9:30a   40.9   41.0   40.6    92   38.8   7.0     E   1.17  11.0   ENE   36.2   40.9   36.2   40.7  30.500  0.00  0.00   185     2.65    193     0.0  0.00   0.0   0.167   0.000   68.9    47   47.8   67.2   8.77  .0757    0.000   203    7    100.0   10 
12/01/20  9:40a   41.6   41.7   41.0    92   39.4   7.0     E   1.17  11.0     E   37.0   41.6   37.0   42.2  30.495  0.00  0.00   206     2.95    214     0.5  0.04   0.5   0.163   0.000   69.0    47   47.9   67.3   8.77  .0757    0.000   201    7    100.0   10 
12/01/20  9:50a   42.6   42.7   41.7    91   40.2   4.0     E   0.67   8.0   ENE   40.3   42.6   40.3   46.3  30.493  0.00  0.00   225     3.23    234     0.6  0.04   0.6   0.156   0.000   69.1    47   48.0   67.4   8.77  .0756    0.000   202    7    100.0   10 
12/01/20 10:00a   43.7   43.7   42.7    91   41.2   2.0     E   0.33   5.0    NE   43.7   43.8   43.8   50.3  30.493  0.00  0.00   244     3.50    251     0.6  0.04   0.7   0.148   0.000   69.1    48   48.6   67.5   8.87  .0756    0.003   202    7    100.0   10 
12/01/20 10:10a   44.3   44.3   43.8    89   41.3   4.0   ESE   0.67   9.0     E   42.3   44.4   42.4   49.3  30.490  0.00  0.00   263     3.77    271     0.7  0.05   0.7   0.144   0.000   69.2    47   48.1   67.4   8.77  .0756    0.000   204    7    100.0   10 
12/01/20 10:20a   44.5   44.5   44.2    88   41.2   4.0     E   0.67  11.0     E   42.5   44.5   42.5   49.7  30.492  0.00  0.00   278     3.99    285     0.8  0.06   0.8   0.142   0.000   69.2    47   48.1   67.4   8.77  .0756    0.000   202    7    100.0   10 
12/01/20 10:30a   45.2   45.2   44.5    88   41.9   4.0   ESE   0.67   9.0     E   43.3   45.2   43.3   50.8  30.488  0.00  0.00   293     4.20    301     0.8  0.06   0.9   0.137   0.000   69.3    48   48.8   67.6   8.86  .0756    0.000   204    7    100.0   10 
12/01/20 10:40a   46.3   46.3   45.2    88   42.9   3.0     E   0.50   6.0     E   45.5   46.4   45.6   53.4  30.484  0.00  0.00   309     4.43    313     0.9  0.06   0.9   0.130   0.000   69.4    48   48.9   67.7   8.86  .0756    0.000   201    7    100.0   10 
12/01/20 10:50a   47.2   47.2   46.3    86   43.2   3.0     E   0.50   7.0   ESE   46.5   47.2   46.5   54.6  30.480  0.00  0.00   322     4.62    329     1.0  0.07   1.0   0.124   0.000   69.5    48   48.9   67.8   8.86  .0755    0.000   205    7    100.0   10 
12/01/20 11:00a   48.1   48.1   47.2    86   44.1   2.0     E   0.33   4.0   ESE   48.1   48.1   48.1   56.4  30.475  0.00  0.00   336     4.82    341     1.0  0.07   1.1   0.117   0.000   69.6    48   49.0   67.8   8.86  .0755    0.005   201    7    100.0   10 
12/01/20 11:10a   48.3   48.3   48.1    84   43.7   2.0   ESE   0.33   6.0   ESE   48.3   48.3   48.3   56.8  30.467  0.00  0.00   351     5.03    362     1.1  0.08   1.1   0.116   0.000   69.7    47   48.6   67.8   8.76  .0755    0.000   203    7    100.0   10 
12/01/20 11:20a   48.7   48.7   48.3    84   44.1   2.0   ESE   0.33   5.0   ESE   48.7   48.7   48.7   57.2  30.462  0.00  0.00   351     5.03    367     1.1  0.08   1.2   0.113   0.000   69.9    48   49.3   68.0   8.85  .0754    0.000   204    7    100.0   10 
12/01/20 11:30a   49.5   49.5   48.5    84   44.9   2.0   ESE   0.33   6.0     S   49.5   49.6   49.6   58.3  30.458  0.00  0.00   361     5.18    367     1.2  0.09   1.2   0.108   0.000   70.0    48   49.4   68.1   8.85  .0754    0.000   203    7    100.0   10 
12/01/20 11:40a   50.3   50.3   49.6    82   45.0   2.0   ESE   0.33   6.0     E   50.3   50.3   50.3   59.2  30.454  0.00  0.00   374     5.36    387     1.2  0.09   1.2   0.102   0.000   70.1    48   49.5   68.2   8.85  .0754    0.000   204    7    100.0   10 
12/01/20 11:50a   50.6   50.6   50.2    81   45.0   4.0     E   0.67   9.0   ESE   49.6   50.6   49.6   58.4  30.445  0.00  0.00   370     5.30    373     1.2  0.09   1.2   0.100   0.000   70.1    48   49.5   68.2   8.85  .0753    0.000   204    7    100.0   10 
12/01/20 12:00p   51.4   51.4   50.6    80   45.4   1.0   ESE   0.17   4.0    SE   51.4   51.3   51.3   60.1  30.436  0.00  0.00   371     5.32    373     1.3  0.09   1.3   0.094   0.000   70.1    49   50.0   68.3   9.05  .0753    0.007   204    7    100.0   10 
12/01/20 12:10p   52.1   52.1   51.5    79   45.8   1.0   SSE   0.17   3.0   SSE   52.1   51.8   51.8   60.7  30.427  0.00  0.00   376     5.39    383     1.3  0.09   1.3   0.090   0.000   70.2    49   50.1   68.5   9.05  .0753    0.000   204    7    100.0   10 
Email: AdamSPAM@StormwatchersRetreat.com (To send me email remove the word 'SPAM' from my email address.)